CheckWX is a tool to help pilots better visualize weather data.  It is not intended as a substitute for an official pre-flight weather briefing.

01:06:42 UTC

CYSM METAR
Fort Smith Airport
Fort Smith, Canada
Current

1 hour ago

CYSM 240000Z 10004KT 060V170 15SM FEW110 FEW240 M05/M18 A3054 RMK AC1CC1 AC TR SLP360
Observed
Mar-24 @ 00:00 UTC
Wind
  • 100° at 4 KTS
Visibility
15 SM
Flight Rules
VFR
Cloud Levels
  • Few at 11,000' AGL
  • Few at 24,000' AGL
Temperature
-5°C / 23°F
Dewpoint
-18°C / -0°F
Humidity
36%
Altimeter
30.54" Hg
Pressure
1036 hPa
Previous

2 hours ago

CYSM 232300Z 14007KT 070V160 15SM FEW110 FEW240 M04/M17 A3053 RMK AC1CI1 AC TR SLP358
Observed
Mar-23 @ 23:00 UTC
Wind
  • 140° at 7 KTS
Visibility
15 SM
Flight Rules
VFR
Cloud Levels
  • Few at 11,000' AGL
  • Few at 24,000' AGL
Temperature
-4°C / 25°F
Dewpoint
-17°C / 1°F
Humidity
36%
Altimeter
30.53" Hg
Pressure
1035.8 hPa
Previous

3 hours ago

CYSM 232200Z 13008KT 040V150 15SM FEW110 FEW240 M05/M17 A3054 RMK AC1CC1 AC TR CONTRAILS SLP359
Observed
Mar-23 @ 22:00 UTC
Wind
  • 130° at 8 KTS
Visibility
15 SM
Flight Rules
VFR
Cloud Levels
  • Few at 11,000' AGL
  • Few at 24,000' AGL
Temperature
-5°C / 23°F
Dewpoint
-17°C / 1°F
Humidity
39%
Altimeter
30.54" Hg
Pressure
1035.9 hPa